createdAt,value
2022-11-03T00:02:09.886Z,3.40
2022-11-03T00:04:39.198Z,3.40
2022-11-03T00:07:07.589Z,3.40
2022-11-03T00:09:41.165Z,3.40
2022-11-03T00:12:09.601Z,3.30
2022-11-03T00:14:39.422Z,3.30
2022-11-03T00:17:07.994Z,3.30
2022-11-03T00:19:36.374Z,3.30
2022-11-03T00:22:04.788Z,3.20
2022-11-03T00:24:33.117Z,3.20
2022-11-03T00:27:01.558Z,3.20
2022-11-03T00:29:30.144Z,3.20
2022-11-03T00:31:59.929Z,3.10
2022-11-03T00:34:31.202Z,3.00
2022-11-03T00:36:59.612Z,3.00
2022-11-03T00:39:27.982Z,2.90
2022-11-03T00:41:58.494Z,2.90
2022-11-03T00:44:27.448Z,2.80
2022-11-03T00:46:55.855Z,2.80
2022-11-03T00:49:26.192Z,2.80
2022-11-03T00:51:54.435Z,2.80
2022-11-03T00:54:22.952Z,2.70
2022-11-03T00:56:54.442Z,2.70
2022-11-03T00:59:22.728Z,2.60
2022-11-03T01:01:51.379Z,2.60
2022-11-03T01:04:36.969Z,2.50
2022-11-03T01:07:07.747Z,2.50
2022-11-03T01:09:38.202Z,2.40
2022-11-03T01:12:08.881Z,2.40
2022-11-03T01:14:39.940Z,2.30
2022-11-03T01:17:09.270Z,2.20
2022-11-03T01:19:37.852Z,2.20
2022-11-03T01:22:10.658Z,2.20
2022-11-03T01:24:39.995Z,2.10
2022-11-03T01:27:08.349Z,2.10
2022-11-03T01:29:36.525Z,2.10
2022-11-03T01:32:04.657Z,2.10
2022-11-03T01:34:33.100Z,2.00
2022-11-03T01:37:01.301Z,2.00
2022-11-03T01:39:31.042Z,2.00
2022-11-03T01:41:59.321Z,2.00
2022-11-03T01:44:38.432Z,2.10
2022-11-03T01:47:15.366Z,2.10
2022-11-03T01:49:48.001Z,2.10
2022-11-03T01:52:21.890Z,2.10
2022-11-03T01:54:59.479Z,2.10
2022-11-03T01:57:32.988Z,2.10
2022-11-03T02:00:04.098Z,2.10
2022-11-03T02:02:41.447Z,2.00
2022-11-03T02:05:13.116Z,1.90
2022-11-03T02:07:47.981Z,1.90
2022-11-03T02:10:18.724Z,1.90
2022-11-03T02:12:47.252Z,1.90
2022-11-03T02:15:18.774Z,1.80
2022-11-03T02:17:49.023Z,1.80
2022-11-03T02:20:20.096Z,1.80
2022-11-03T02:23:18.380Z,1.80
2022-11-03T02:25:49.716Z,1.70
2022-11-03T02:28:19.888Z,1.60
2022-11-03T02:31:10.467Z,1.50
2022-11-03T02:33:49.504Z,1.50
2022-11-03T02:36:23.940Z,1.60
2022-11-03T02:38:58.472Z,1.60
2022-11-03T02:41:29.819Z,1.50
2022-11-03T02:43:59.320Z,1.50
2022-11-03T02:46:29.073Z,1.60
2022-11-03T02:48:57.690Z,1.50
2022-11-03T02:51:25.970Z,1.50
2022-11-03T02:54:03.317Z,1.50
2022-11-03T02:56:38.708Z,1.50
2022-11-03T02:59:11.115Z,1.60
2022-11-03T03:01:47.926Z,1.60
2022-11-03T03:04:20.986Z,1.70
2022-11-03T03:06:53.847Z,1.70
2022-11-03T03:09:25.960Z,1.70
2022-11-03T03:12:01.160Z,1.70
2022-11-03T03:14:34.137Z,1.70
2022-11-03T03:17:06.304Z,1.70
2022-11-03T03:19:48.066Z,1.60
2022-11-03T03:22:23.845Z,1.60
2022-11-03T03:24:57.120Z,1.60
2022-11-03T03:27:29.682Z,1.50
2022-11-03T03:30:01.751Z,1.40
2022-11-03T03:32:35.513Z,1.30
2022-11-03T03:35:07.582Z,1.30
2022-11-03T03:37:38.347Z,1.20
2022-11-03T03:40:11.564Z,1.10
2022-11-03T03:42:44.640Z,1.10
2022-11-03T03:45:14.493Z,1.10
2022-11-03T03:47:42.813Z,1.10
2022-11-03T03:50:13.723Z,1.10
2022-11-03T03:52:41.846Z,1.10
2022-11-03T03:55:18.022Z,1.10
2022-11-03T03:57:47.508Z,1.20
2022-11-03T04:00:16.290Z,1.20
2022-11-03T04:02:44.384Z,1.20
2022-11-03T04:05:12.576Z,1.20
2022-11-03T04:07:49.579Z,1.20
2022-11-03T04:10:19.888Z,1.20
2022-11-03T04:13:04.534Z,1.30
2022-11-03T04:15:50.832Z,1.30
2022-11-03T04:18:37.287Z,1.30
2022-11-03T04:21:28.741Z,1.40
2022-11-03T04:23:56.811Z,1.40
2022-11-03T04:26:25.016Z,1.40
2022-11-03T04:28:55.390Z,1.40
2022-11-03T04:31:23.918Z,1.40
2022-11-03T04:33:52.484Z,1.40
2022-11-03T04:36:22.139Z,1.40
2022-11-03T04:38:51.277Z,1.40
2022-11-03T04:41:21.771Z,1.40
2022-11-03T04:43:51.559Z,1.40
2022-11-03T04:46:26.366Z,1.40
2022-11-03T04:49:03.029Z,1.40
2022-11-03T04:51:34.191Z,1.40
2022-11-03T04:54:04.547Z,1.40
2022-11-03T04:56:35.567Z,1.40
2022-11-03T04:59:12.115Z,1.40
2022-11-03T05:01:42.246Z,1.40
2022-11-03T05:04:14.542Z,1.40
2022-11-03T05:06:43.373Z,1.40
2022-11-03T05:09:15.735Z,1.40
2022-11-03T05:11:50.813Z,1.40
2022-11-03T05:14:35.684Z,1.40
2022-11-03T05:17:16.753Z,1.50
2022-11-03T05:19:45.336Z,1.50
2022-11-03T05:22:20.963Z,1.50
2022-11-03T05:24:49.307Z,1.50
2022-11-03T05:27:21.558Z,1.50
2022-11-03T05:29:55.129Z,1.60
2022-11-03T05:32:31.095Z,1.70
2022-11-03T05:34:59.524Z,1.60
2022-11-03T05:37:34.940Z,1.60
2022-11-03T05:40:16.693Z,1.60
2022-11-03T05:42:47.199Z,1.60
2022-11-03T05:45:23.933Z,1.50
2022-11-03T05:47:56.455Z,1.50
2022-11-03T05:50:27.025Z,1.40
2022-11-03T05:53:11.228Z,1.40
2022-11-03T05:55:39.530Z,1.40
2022-11-03T05:58:18.293Z,1.30
2022-11-03T06:00:48.780Z,1.40
2022-11-03T06:03:24.190Z,1.30
2022-11-03T06:05:52.737Z,1.40
2022-11-03T06:10:55.035Z,1.50
2022-11-03T06:13:28.004Z,1.60
2022-11-03T06:16:00.217Z,1.70
2022-11-03T06:18:34.956Z,2.00
2022-11-03T06:21:08.257Z,2.30
2022-11-03T06:23:37.703Z,2.60
2022-11-03T06:26:24.756Z,3.00
2022-11-03T06:28:53.188Z,3.40
2022-11-03T06:31:23.734Z,3.70
2022-11-03T06:33:53.991Z,4.20
2022-11-03T06:36:23.679Z,4.50
2022-11-03T06:38:55.663Z,4.90
2022-11-03T06:41:27.093Z,5.30
2022-11-03T06:43:59.500Z,5.70
2022-11-03T06:46:28.439Z,6.00
2022-11-03T06:49:01.457Z,6.30
2022-11-03T06:51:31.011Z,6.60
2022-11-03T06:54:01.395Z,6.70
2022-11-03T06:56:32.568Z,6.90
2022-11-03T06:59:02.219Z,7.10
2022-11-03T07:01:33.563Z,7.30
2022-11-03T07:05:03.265Z,7.40
2022-11-03T07:07:32.858Z,7.60
2022-11-03T07:10:01.057Z,7.90
2022-11-03T07:12:29.271Z,8.00
2022-11-03T07:14:59.010Z,8.20
2022-11-03T07:17:27.315Z,8.30
2022-11-03T07:19:55.934Z,8.50
2022-11-03T07:22:26.597Z,8.50
2022-11-03T07:25:00.624Z,8.60
2022-11-03T07:27:31.815Z,8.80
2022-11-03T07:30:03.952Z,8.90
2022-11-03T07:32:35.242Z,9.00
2022-11-03T07:35:10.950Z,9.10
2022-11-03T07:37:39.139Z,9.10
2022-11-03T07:40:14.414Z,9.10
2022-11-03T07:42:42.732Z,9.20
2022-11-03T07:45:34.638Z,9.20
2022-11-03T07:48:12.489Z,9.30
2022-11-03T07:50:40.766Z,9.30
2022-11-03T07:53:14.640Z,9.40
2022-11-03T07:55:46.372Z,9.30
2022-11-03T07:58:23.785Z,9.30
2022-11-03T08:00:58.554Z,9.30
2022-11-03T08:03:39.146Z,9.40
2022-11-03T08:06:09.915Z,9.40
2022-11-03T08:08:38.986Z,9.50
2022-11-03T08:11:08.685Z,9.70
2022-11-03T08:13:36.950Z,10.10
2022-11-03T08:16:05.606Z,10.50
2022-11-03T08:18:33.826Z,11.00
2022-11-03T08:21:02.022Z,11.30
2022-11-03T08:23:30.374Z,11.50
2022-11-03T08:25:58.784Z,11.70
2022-11-03T08:28:28.468Z,11.90
2022-11-03T08:31:02.223Z,11.80
2022-11-03T08:33:30.567Z,11.90
2022-11-03T08:35:58.744Z,11.70
2022-11-03T08:38:27.002Z,11.80
2022-11-03T08:40:55.628Z,12.00
2022-11-03T08:43:23.993Z,12.20
2022-11-03T08:45:54.547Z,12.40
2022-11-03T08:48:23.809Z,12.40
2022-11-03T08:50:54.175Z,12.30
2022-11-03T08:53:22.606Z,12.40
2022-11-03T08:55:50.923Z,12.60
2022-11-03T08:58:19.301Z,12.80
2022-11-03T09:00:48.075Z,13.00
2022-11-03T09:03:17.724Z,13.10
2022-11-03T09:05:46.341Z,13.40
2022-11-03T09:11:02.816Z,13.90
2022-11-03T09:13:31.083Z,14.40
2022-11-03T09:15:59.269Z,14.80
2022-11-03T09:18:28.882Z,15.30
2022-11-03T09:20:57.092Z,15.50
2022-11-03T09:23:25.351Z,15.70
2022-11-03T09:25:53.579Z,16.00
2022-11-03T09:28:21.910Z,16.40
2022-11-03T09:30:50.574Z,16.80
2022-11-03T09:33:18.760Z,17.20
2022-11-03T09:35:48.569Z,17.30
2022-11-03T09:38:16.760Z,17.10
2022-11-03T09:40:45.156Z,17.10
2022-11-03T09:43:13.613Z,17.30
2022-11-03T09:45:41.774Z,17.40
2022-11-03T09:48:11.903Z,17.50
2022-11-03T09:50:40.944Z,17.50
2022-11-03T09:53:13.329Z,17.50
2022-11-03T09:55:41.658Z,17.40
2022-11-03T09:58:14.895Z,17.40
2022-11-03T10:00:43.419Z,17.50
2022-11-03T10:03:12.398Z,17.40
2022-11-03T10:05:41.865Z,17.20
2022-11-03T10:08:28.163Z,17.10
2022-11-03T10:10:57.443Z,16.80
2022-11-03T10:13:30.122Z,16.90
2022-11-03T10:15:58.829Z,17.10
2022-11-03T10:18:28.970Z,17.40
2022-11-03T10:20:57.709Z,17.70
2022-11-03T10:23:27.232Z,17.90
2022-11-03T10:26:08.975Z,18.00
2022-11-03T10:28:37.358Z,18.00
2022-11-03T10:31:11.821Z,18.10
2022-11-03T10:33:42.495Z,17.70
2022-11-03T10:36:25.262Z,17.90
2022-11-03T10:38:55.699Z,17.70
2022-11-03T10:41:25.410Z,17.60
2022-11-03T10:44:05.745Z,17.40
2022-11-03T10:46:50.240Z,17.40
2022-11-03T10:49:21.118Z,17.30
2022-11-03T10:51:52.242Z,17.20
2022-11-03T10:54:23.955Z,17.10
2022-11-03T10:56:52.839Z,17.20
2022-11-03T10:59:23.476Z,17.10
2022-11-03T11:01:52.229Z,17.00
2022-11-03T11:04:21.978Z,16.80
2022-11-03T11:06:50.232Z,16.60
2022-11-03T11:09:25.603Z,16.40
2022-11-03T11:12:02.380Z,16.30
2022-11-03T11:14:39.550Z,16.10
2022-11-03T11:17:41.258Z,15.90
2022-11-03T11:20:34.345Z,15.80
2022-11-03T11:23:49.023Z,15.70
2022-11-03T11:26:32.197Z,15.50
2022-11-03T11:29:43.973Z,15.30
2022-11-03T11:32:51.863Z,15.00
2022-11-03T11:36:07.792Z,14.90
2022-11-03T11:39:09.345Z,15.00
2022-11-03T11:42:11.756Z,15.00
2022-11-03T11:44:54.949Z,14.90
2022-11-03T11:47:44.726Z,14.90
2022-11-03T11:50:32.978Z,14.90
2022-11-03T11:53:11.853Z,15.00
2022-11-03T11:55:43.881Z,15.10
2022-11-03T11:58:24.738Z,15.30
2022-11-03T12:00:58.820Z,15.40
2022-11-03T12:03:36.973Z,15.40
2022-11-03T12:06:05.566Z,15.50
2022-11-03T12:08:34.234Z,15.70
2022-11-03T12:11:04.289Z,15.90
2022-11-03T12:13:42.717Z,16.00
2022-11-03T12:16:11.432Z,16.20
2022-11-03T12:18:46.088Z,16.30
2022-11-03T12:21:48.856Z,16.40
2022-11-03T12:24:27.951Z,16.30
2022-11-03T12:27:03.687Z,16.20
2022-11-03T12:29:34.423Z,16.20
2022-11-03T12:32:03.628Z,16.30
2022-11-03T12:34:33.844Z,16.30
2022-11-03T12:37:03.394Z,16.40
2022-11-03T12:39:32.944Z,16.30
2022-11-03T12:42:26.607Z,16.40
2022-11-03T12:45:00.188Z,16.40
2022-11-03T12:47:29.981Z,16.30
2022-11-03T12:50:03.352Z,16.40
2022-11-03T12:52:32.746Z,16.30
2022-11-03T12:55:01.207Z,16.30
2022-11-03T12:57:29.853Z,16.40
2022-11-03T12:59:59.631Z,16.40
2022-11-03T13:02:50.629Z,16.40
2022-11-03T13:06:00.684Z,16.30
2022-11-03T13:09:02.442Z,16.50
2022-11-03T13:12:05.794Z,16.60
2022-11-03T13:14:46.299Z,16.70
2022-11-03T13:20:45.935Z,16.70
2022-11-03T13:23:52.843Z,16.20
2022-11-03T13:26:34.731Z,16.20
2022-11-03T13:29:19.864Z,16.20
2022-11-03T13:40:07.759Z,16.00
2022-11-03T13:43:00.245Z,15.70
2022-11-03T14:06:02.441Z,15.10
2022-11-03T14:09:04.299Z,15.00
2022-11-03T14:12:21.363Z,14.90
2022-11-03T14:15:18.414Z,14.70
2022-11-03T14:17:56.564Z,14.50
2022-11-03T14:24:04.093Z,14.20
2022-11-03T14:34:38.019Z,13.60
2022-11-03T14:37:09.035Z,13.50
2022-11-03T14:39:55.948Z,13.20
2022-11-03T14:46:05.361Z,12.90
2022-11-03T14:48:40.462Z,12.70
2022-11-03T14:51:12.555Z,12.60
2022-11-03T14:56:46.397Z,12.50
2022-11-03T14:59:16.215Z,12.40
2022-11-03T15:02:16.226Z,12.30
2022-11-03T15:08:56.685Z,12.20
2022-11-03T15:11:57.262Z,12.20
2022-11-03T15:14:45.396Z,12.10
2022-11-03T15:17:15.532Z,12.10
2022-11-03T15:19:47.977Z,12.10
2022-11-03T15:25:46.061Z,12.00
2022-11-03T15:28:18.946Z,12.00
2022-11-03T15:30:48.597Z,11.90
2022-11-03T15:33:19.583Z,11.90
2022-11-03T15:35:48.705Z,11.80
2022-11-03T15:38:17.464Z,11.90
2022-11-03T15:40:46.269Z,11.90
2022-11-03T15:43:14.871Z,11.90
2022-11-03T15:45:43.130Z,11.90
2022-11-03T15:48:11.784Z,11.80
2022-11-03T15:50:42.274Z,11.80
2022-11-03T15:53:10.497Z,11.80
2022-11-03T15:55:39.060Z,11.80
2022-11-03T15:58:07.745Z,11.80
2022-11-03T16:00:36.482Z,11.80
2022-11-03T16:03:05.545Z,11.70
2022-11-03T16:07:06.789Z,11.70
2022-11-03T16:10:14.023Z,11.50
2022-11-03T16:13:02.659Z,11.30
2022-11-03T16:15:40.716Z,11.20
2022-11-03T16:18:16.096Z,11.20
2022-11-03T16:20:55.173Z,11.10
2022-11-03T16:23:28.768Z,11.10
2022-11-03T16:25:57.768Z,11.20
2022-11-03T16:28:26.704Z,11.20
2022-11-03T16:30:55.843Z,11.20
2022-11-03T16:33:25.063Z,11.20
2022-11-03T16:36:02.863Z,11.20
2022-11-03T16:38:35.870Z,11.20
2022-11-03T16:41:04.432Z,11.20
2022-11-03T16:43:33.459Z,11.10
2022-11-03T16:46:03.469Z,11.00
2022-11-03T16:48:32.337Z,11.00
2022-11-03T16:51:00.580Z,11.00
2022-11-03T16:53:29.115Z,11.00
2022-11-03T16:55:58.909Z,11.00
2022-11-03T16:58:27.184Z,11.00
2022-11-03T17:00:55.762Z,11.00
2022-11-03T17:03:24.142Z,11.10
2022-11-03T17:05:52.496Z,11.10
2022-11-03T17:11:10.711Z,11.00
2022-11-03T17:13:39.186Z,11.00
2022-11-03T17:16:07.688Z,11.00
2022-11-03T17:18:36.233Z,11.00
2022-11-03T17:21:04.958Z,11.00
2022-11-03T17:23:33.324Z,10.90
2022-11-03T17:26:03.166Z,10.90
2022-11-03T17:28:33.044Z,10.80
2022-11-03T17:31:01.282Z,10.80
2022-11-03T17:33:29.587Z,10.80
2022-11-03T17:35:58.425Z,10.80
2022-11-03T17:38:27.460Z,10.70
2022-11-03T17:40:55.731Z,10.70
2022-11-03T17:43:27.053Z,10.70
2022-11-03T17:45:57.134Z,10.60
2022-11-03T17:48:25.649Z,10.60
2022-11-03T17:50:56.834Z,10.60
2022-11-03T17:53:26.947Z,10.60
2022-11-03T17:56:27.965Z,10.60
2022-11-03T17:58:47.146Z,10.50
2022-11-03T18:01:21.899Z,10.40
2022-11-03T18:03:50.413Z,10.40
2022-11-03T18:06:20.403Z,10.40
2022-11-03T18:08:49.548Z,10.40
2022-11-03T18:11:42.528Z,10.50
2022-11-03T18:14:10.940Z,10.40
2022-11-03T18:16:41.454Z,10.40
2022-11-03T18:19:13.223Z,10.40
2022-11-03T18:21:42.052Z,10.40
2022-11-03T18:24:13.452Z,10.40
2022-11-03T18:26:42.125Z,10.50
2022-11-03T18:29:10.352Z,10.50
2022-11-03T18:31:42.580Z,10.50
2022-11-03T18:34:15.593Z,10.50
2022-11-03T18:36:44.487Z,10.60
2022-11-03T18:39:18.014Z,10.50
2022-11-03T18:41:46.225Z,10.50
2022-11-03T18:44:20.574Z,10.50
2022-11-03T18:46:52.575Z,10.50
2022-11-03T18:49:21.471Z,10.40
2022-11-03T18:51:51.800Z,10.40
2022-11-03T18:54:22.466Z,10.40
2022-11-03T18:56:53.009Z,10.30
2022-11-03T18:59:24.302Z,10.30
2022-11-03T19:01:54.106Z,10.20
2022-11-03T19:04:22.675Z,10.20
2022-11-03T19:06:52.898Z,10.10
2022-11-03T19:09:24.751Z,10.10
2022-11-03T19:11:58.313Z,10.10
2022-11-03T19:14:30.183Z,10.10
2022-11-03T19:19:48.570Z,10.20
2022-11-03T19:22:18.907Z,10.20
2022-11-03T19:24:47.400Z,10.30
2022-11-03T19:27:18.178Z,10.30
2022-11-03T19:29:48.431Z,10.30
2022-11-03T19:32:21.983Z,10.40
2022-11-03T19:34:54.759Z,10.40
2022-11-03T19:37:23.192Z,10.40
2022-11-03T19:39:51.442Z,10.40
2022-11-03T19:42:33.145Z,10.40
2022-11-03T19:45:02.861Z,10.40
2022-11-03T19:47:35.743Z,10.40
2022-11-03T19:50:06.593Z,10.30
2022-11-03T19:52:35.611Z,10.30
2022-11-03T19:55:06.503Z,10.30
2022-11-03T19:57:34.774Z,10.30
2022-11-03T20:00:03.595Z,10.30
2022-11-03T20:02:39.580Z,10.30
2022-11-03T20:05:08.352Z,10.30
2022-11-03T20:07:36.547Z,10.40
2022-11-03T20:10:05.517Z,10.50
2022-11-03T20:12:33.785Z,10.50
2022-11-03T20:15:01.980Z,10.50
2022-11-03T20:17:30.264Z,10.50
2022-11-03T20:19:59.775Z,10.50
2022-11-03T20:22:30.392Z,10.60
2022-11-03T20:25:03.219Z,10.50
2022-11-03T20:27:32.962Z,10.50
2022-11-03T20:30:01.187Z,10.50
2022-11-03T20:32:29.505Z,10.40
2022-11-03T20:34:59.082Z,10.40
2022-11-03T20:37:27.486Z,10.40
2022-11-03T20:39:55.813Z,10.40
2022-11-03T20:42:26.603Z,10.30
2022-11-03T20:44:54.997Z,10.30
2022-11-03T20:47:23.306Z,10.30
2022-11-03T20:49:51.862Z,10.30
2022-11-03T20:52:21.514Z,10.20
2022-11-03T20:54:51.089Z,10.20
2022-11-03T20:57:19.375Z,10.20
2022-11-03T20:59:47.788Z,10.20
2022-11-03T21:02:16.156Z,10.10
2022-11-03T21:04:44.416Z,10.10
2022-11-03T21:07:13.646Z,10.10
2022-11-03T21:09:43.326Z,10.00
2022-11-03T21:12:14.543Z,10.00
2022-11-03T21:15:00.137Z,10.00
2022-11-03T21:17:45.646Z,10.00
2022-11-03T21:20:14.038Z,10.00
2022-11-03T21:22:52.451Z,10.00
2022-11-03T21:25:25.146Z,10.10
2022-11-03T21:27:54.770Z,10.00
2022-11-03T21:30:24.292Z,10.00
2022-11-03T21:32:52.662Z,10.00
2022-11-03T21:35:22.452Z,10.00
2022-11-03T21:37:51.013Z,10.00
2022-11-03T21:40:19.434Z,10.10
2022-11-03T21:43:07.168Z,10.10
2022-11-03T21:45:36.096Z,10.10
2022-11-03T21:48:23.575Z,10.10
2022-11-03T21:50:52.153Z,10.10
2022-11-03T21:53:20.778Z,10.10
2022-11-03T21:55:49.631Z,10.10
2022-11-03T21:58:22.275Z,10.20
2022-11-03T22:00:50.762Z,10.20
2022-11-03T22:03:19.376Z,10.30
2022-11-03T22:05:47.691Z,10.30
2022-11-03T22:08:16.273Z,10.50
2022-11-03T22:10:44.681Z,10.60
2022-11-03T22:13:13.092Z,10.70
2022-11-03T22:16:00.712Z,10.80
2022-11-03T22:18:29.171Z,10.90
2022-11-03T22:21:16.438Z,11.00
2022-11-03T22:24:03.954Z,11.10
2022-11-03T22:26:49.545Z,11.20
2022-11-03T22:29:35.678Z,11.30
2022-11-03T22:32:06.383Z,11.40
2022-11-03T22:34:52.001Z,11.50
2022-11-03T22:37:20.482Z,11.60
2022-11-03T22:40:17.745Z,11.60
2022-11-03T22:43:06.187Z,11.70
2022-11-03T22:45:54.505Z,11.80
2022-11-03T22:48:25.823Z,11.80
2022-11-03T22:50:59.558Z,11.90
2022-11-03T22:53:45.555Z,11.90
2022-11-03T22:56:14.436Z,11.90
2022-11-03T22:58:43.099Z,12.00
2022-11-03T23:01:13.460Z,12.00
2022-11-03T23:03:44.636Z,12.10
2022-11-03T23:06:15.012Z,12.00
2022-11-03T23:08:46.846Z,12.10
2022-11-03T23:11:17.516Z,12.10
2022-11-03T23:13:47.401Z,12.20
2022-11-03T23:16:17.875Z,12.20
2022-11-03T23:19:06.350Z,12.20
2022-11-03T23:21:35.892Z,12.20
2022-11-03T23:24:22.335Z,12.20
2022-11-03T23:26:51.134Z,12.20
2022-11-03T23:29:19.336Z,12.30
2022-11-03T23:31:47.825Z,12.30
2022-11-03T23:34:17.977Z,12.30
2022-11-03T23:36:46.445Z,12.30
2022-11-03T23:39:16.119Z,12.40
2022-11-03T23:41:45.125Z,12.40
2022-11-03T23:44:14.587Z,12.30
2022-11-03T23:47:00.473Z,12.30
2022-11-03T23:49:30.186Z,12.30
2022-11-03T23:51:58.812Z,12.30
2022-11-03T23:54:27.363Z,12.30
2022-11-03T23:57:13.007Z,12.30
2022-11-03T23:59:41.486Z,12.30
